Terminal Aerodrome Forecast
Issued by NWS San Angelo, TX

Home | Current Version | Previous Version | Text Only | Print | Product List | Glossary On
Versions: 1 2 3 4 5 6 7 8 9 10 11 12 13 14
073
FTUS44 KSJT 281123
TAFABI
TAF
KABI 281123Z 2812/2912 14011KT P6SM BKN010
     FM281800 16014G20KT P6SM OVC020
     FM282100 17015G24KT P6SM VCTS BKN040CB
     FM290100 17015KT P6SM SCT040 BKN100
     FM290300 19011G17KT 5SM TSRA BKN035CB
     FM290600 25011KT P6SM SCT030 BKN250=

USA.gov is the U.S. government's official web portal to all federal, state and local government web resources and services.